sensor_id;sensor_type;location;lat;lon;timestamp;temperature;humidity
50955;DHT22;36966;48.064;-0.792;2023-01-24T00:00:08;14.20;40.50
50955;DHT22;36966;48.064;-0.792;2023-01-24T00:02:28;14.30;40.50
50955;DHT22;36966;48.064;-0.792;2023-01-24T00:04:47;14.30;40.50
50955;DHT22;36966;48.064;-0.792;2023-01-24T00:07:06;14.20;40.60
50955;DHT22;36966;48.064;-0.792;2023-01-24T00:09:25;14.30;40.50
50955;DHT22;36966;48.064;-0.792;2023-01-24T00:11:44;14.30;40.50
50955;DHT22;36966;48.064;-0.792;2023-01-24T00:14:04;14.30;40.50
50955;DHT22;36966;48.064;-0.792;2023-01-24T00:16:23;14.20;40.50
50955;DHT22;36966;48.064;-0.792;2023-01-24T00:18:42;14.20;40.50
50955;DHT22;36966;48.064;-0.792;2023-01-24T00:21:04;14.20;40.50
50955;DHT22;36966;48.064;-0.792;2023-01-24T00:23:24;14.20;40.50
50955;DHT22;36966;48.064;-0.792;2023-01-24T00:25:44;14.20;40.50
50955;DHT22;36966;48.064;-0.792;2023-01-24T00:28:03;14.20;40.50
50955;DHT22;36966;48.064;-0.792;2023-01-24T00:30:23;14.30;40.50
50955;DHT22;36966;48.064;-0.792;2023-01-24T00:32:41;14.30;40.60
50955;DHT22;36966;48.064;-0.792;2023-01-24T00:35:00;14.20;40.60
50955;DHT22;36966;48.064;-0.792;2023-01-24T00:37:20;14.20;40.60
50955;DHT22;36966;48.064;-0.792;2023-01-24T00:39:39;14.20;40.50
50955;DHT22;36966;48.064;-0.792;2023-01-24T00:41:58;14.30;40.60
50955;DHT22;36966;48.064;-0.792;2023-01-24T00:44:17;14.30;40.60
50955;DHT22;36966;48.064;-0.792;2023-01-24T00:46:36;14.20;40.50
50955;DHT22;36966;48.064;-0.792;2023-01-24T00:48:55;14.20;40.60
50955;DHT22;36966;48.064;-0.792;2023-01-24T00:51:15;14.20;40.50
50955;DHT22;36966;48.064;-0.792;2023-01-24T00:53:34;14.20;40.50
50955;DHT22;36966;48.064;-0.792;2023-01-24T00:55:54;14.20;40.60
50955;DHT22;36966;48.064;-0.792;2023-01-24T00:58:14;14.20;40.60
50955;DHT22;36966;48.064;-0.792;2023-01-24T01:00:33;14.20;40.60
50955;DHT22;36966;48.064;-0.792;2023-01-24T01:02:53;14.20;40.60
50955;DHT22;36966;48.064;-0.792;2023-01-24T01:05:13;14.20;40.60
50955;DHT22;36966;48.064;-0.792;2023-01-24T01:07:32;14.20;40.60
50955;DHT22;36966;48.064;-0.792;2023-01-24T01:09:51;14.20;40.60
50955;DHT22;36966;48.064;-0.792;2023-01-24T01:12:10;14.20;40.60
50955;DHT22;36966;48.064;-0.792;2023-01-24T01:14:30;14.20;40.60
50955;DHT22;36966;48.064;-0.792;2023-01-24T01:16:49;14.20;40.60
50955;DHT22;36966;48.064;-0.792;2023-01-24T01:19:08;14.20;40.60
50955;DHT22;36966;48.064;-0.792;2023-01-24T01:21:27;14.20;40.60
50955;DHT22;36966;48.064;-0.792;2023-01-24T01:23:47;14.20;40.60
50955;DHT22;36966;48.064;-0.792;2023-01-24T01:26:08;14.20;40.60
50955;DHT22;36966;48.064;-0.792;2023-01-24T01:28:30;14.20;40.60
50955;DHT22;36966;48.064;-0.792;2023-01-24T01:30:52;14.20;40.60
50955;DHT22;36966;48.064;-0.792;2023-01-24T01:33:12;14.20;40.70
50955;DHT22;36966;48.064;-0.792;2023-01-24T01:35:31;14.20;40.70
50955;DHT22;36966;48.064;-0.792;2023-01-24T01:37:50;14.20;40.60
50955;DHT22;36966;48.064;-0.792;2023-01-24T01:40:10;14.20;40.70
50955;DHT22;36966;48.064;-0.792;2023-01-24T01:42:50;14.20;40.70
50955;DHT22;36966;48.064;-0.792;2023-01-24T01:47:55;14.20;40.70
50955;DHT22;36966;48.064;-0.792;2023-01-24T01:50:26;14.20;40.70
50955;DHT22;36966;48.064;-0.792;2023-01-24T01:52:47;14.20;40.70
50955;DHT22;36966;48.064;-0.792;2023-01-24T01:55:18;14.20;40.70
50955;DHT22;36966;48.064;-0.792;2023-01-24T01:57:40;14.20;40.70
50955;DHT22;36966;48.064;-0.792;2023-01-24T02:00:12;14.20;40.70
50955;DHT22;36966;48.064;-0.792;2023-01-24T02:02:32;14.20;40.70
50955;DHT22;36966;48.064;-0.792;2023-01-24T02:05:02;14.20;40.70
50955;DHT22;36966;48.064;-0.792;2023-01-24T02:07:34;14.20;40.70
50955;DHT22;36966;48.064;-0.792;2023-01-24T02:09:55;14.20;40.80
50955;DHT22;36966;48.064;-0.792;2023-01-24T02:12:19;14.20;40.80
50955;DHT22;36966;48.064;-0.792;2023-01-24T02:14:39;14.20;40.80
50955;DHT22;36966;48.064;-0.792;2023-01-24T02:17:19;14.20;40.80
50955;DHT22;36966;48.064;-0.792;2023-01-24T02:22:26;14.20;40.80
50955;DHT22;36966;48.064;-0.792;2023-01-24T02:27:25;14.20;40.70
50955;DHT22;36966;48.064;-0.792;2023-01-24T02:29:47;14.20;40.70
50955;DHT22;36966;48.064;-0.792;2023-01-24T02:32:07;14.20;40.80
50955;DHT22;36966;48.064;-0.792;2023-01-24T02:34:28;14.20;40.80
50955;DHT22;36966;48.064;-0.792;2023-01-24T02:36:52;14.20;40.80
50955;DHT22;36966;48.064;-0.792;2023-01-24T02:39:20;14.20;40.80
50955;DHT22;36966;48.064;-0.792;2023-01-24T02:41:59;14.20;40.80
50955;DHT22;36966;48.064;-0.792;2023-01-24T02:44:25;14.20;40.80
50955;DHT22;36966;48.064;-0.792;2023-01-24T02:46:47;14.20;40.90
50955;DHT22;36966;48.064;-0.792;2023-01-24T02:49:09;14.20;40.80
50955;DHT22;36966;48.064;-0.792;2023-01-24T02:51:29;14.20;40.80
50955;DHT22;36966;48.064;-0.792;2023-01-24T02:54:07;14.20;40.80
50955;DHT22;36966;48.064;-0.792;2023-01-24T02:56:26;14.20;40.80
50955;DHT22;36966;48.064;-0.792;2023-01-24T02:59:04;14.20;40.90
50955;DHT22;36966;48.064;-0.792;2023-01-24T03:01:23;14.20;40.90
50955;DHT22;36966;48.064;-0.792;2023-01-24T03:03:44;14.20;40.90
50955;DHT22;36966;48.064;-0.792;2023-01-24T03:06:04;14.20;40.90
50955;DHT22;36966;48.064;-0.792;2023-01-24T03:08:28;14.20;40.90
50955;DHT22;36966;48.064;-0.792;2023-01-24T03:10:48;14.20;40.90
50955;DHT22;36966;48.064;-0.792;2023-01-24T03:13:07;14.20;41.00
50955;DHT22;36966;48.064;-0.792;2023-01-24T03:15:45;14.20;41.00
50955;DHT22;36966;48.064;-0.792;2023-01-24T03:18:24;14.20;41.00
50955;DHT22;36966;48.064;-0.792;2023-01-24T03:21:02;14.20;41.00
50955;DHT22;36966;48.064;-0.792;2023-01-24T03:23:40;14.20;41.00
50955;DHT22;36966;48.064;-0.792;2023-01-24T03:26:19;14.20;40.90
50955;DHT22;36966;48.064;-0.792;2023-01-24T03:28:57;14.20;40.90
50955;DHT22;36966;48.064;-0.792;2023-01-24T03:31:35;14.20;40.90
50955;DHT22;36966;48.064;-0.792;2023-01-24T03:34:13;14.20;40.90
50955;DHT22;36966;48.064;-0.792;2023-01-24T03:36:51;14.20;41.00
50955;DHT22;36966;48.064;-0.792;2023-01-24T03:39:10;14.20;41.00
50955;DHT22;36966;48.064;-0.792;2023-01-24T03:41:48;14.20;41.00
50955;DHT22;36966;48.064;-0.792;2023-01-24T03:44:08;14.20;41.00
50955;DHT22;36966;48.064;-0.792;2023-01-24T03:46:27;14.10;41.00
50955;DHT22;36966;48.064;-0.792;2023-01-24T03:48:46;14.20;41.00
50955;DHT22;36966;48.064;-0.792;2023-01-24T03:51:05;14.20;41.00
50955;DHT22;36966;48.064;-0.792;2023-01-24T03:53:43;14.20;41.00
50955;DHT22;36966;48.064;-0.792;2023-01-24T03:56:03;14.20;41.00
50955;DHT22;36966;48.064;-0.792;2023-01-24T03:58:23;14.20;41.00
50955;DHT22;36966;48.064;-0.792;2023-01-24T04:00:43;14.20;41.00
50955;DHT22;36966;48.064;-0.792;2023-01-24T04:03:02;14.20;41.00
50955;DHT22;36966;48.064;-0.792;2023-01-24T04:05:22;14.20;41.00
50955;DHT22;36966;48.064;-0.792;2023-01-24T04:07:42;14.20;41.00
50955;DHT22;36966;48.064;-0.792;2023-01-24T04:10:02;14.20;41.00
50955;DHT22;36966;48.064;-0.792;2023-01-24T04:12:21;14.20;41.00
50955;DHT22;36966;48.064;-0.792;2023-01-24T04:14:40;14.20;41.10
50955;DHT22;36966;48.064;-0.792;2023-01-24T04:16:59;14.20;41.00
50955;DHT22;36966;48.064;-0.792;2023-01-24T04:19:19;14.20;41.10
50955;DHT22;36966;48.064;-0.792;2023-01-24T04:21:38;14.10;41.10
50955;DHT22;36966;48.064;-0.792;2023-01-24T04:23:57;14.20;41.10
50955;DHT22;36966;48.064;-0.792;2023-01-24T04:26:16;14.20;41.10
50955;DHT22;36966;48.064;-0.792;2023-01-24T04:28:35;14.20;41.10
50955;DHT22;36966;48.064;-0.792;2023-01-24T04:30:58;14.20;41.10
50955;DHT22;36966;48.064;-0.792;2023-01-24T04:33:18;14.20;41.10
50955;DHT22;36966;48.064;-0.792;2023-01-24T04:35:37;14.20;41.10
50955;DHT22;36966;48.064;-0.792;2023-01-24T04:38:01;14.20;41.10
50955;DHT22;36966;48.064;-0.792;2023-01-24T04:40:20;14.20;41.10
50955;DHT22;36966;48.064;-0.792;2023-01-24T04:42:39;14.20;41.10
50955;DHT22;36966;48.064;-0.792;2023-01-24T04:44:59;14.20;41.20
50955;DHT22;36966;48.064;-0.792;2023-01-24T04:47:18;14.20;41.20
50955;DHT22;36966;48.064;-0.792;2023-01-24T04:49:37;14.20;41.20
50955;DHT22;36966;48.064;-0.792;2023-01-24T04:51:56;14.20;41.20
50955;DHT22;36966;48.064;-0.792;2023-01-24T04:54:16;14.20;41.20
50955;DHT22;36966;48.064;-0.792;2023-01-24T04:56:36;14.20;41.20
50955;DHT22;36966;48.064;-0.792;2023-01-24T04:58:57;14.20;41.20
50955;DHT22;36966;48.064;-0.792;2023-01-24T05:01:16;14.10;41.20
50955;DHT22;36966;48.064;-0.792;2023-01-24T05:03:36;14.20;41.20
50955;DHT22;36966;48.064;-0.792;2023-01-24T05:05:55;14.20;41.20
50955;DHT22;36966;48.064;-0.792;2023-01-24T05:08:14;14.10;41.20
50955;DHT22;36966;48.064;-0.792;2023-01-24T05:10:33;14.10;41.20
50955;DHT22;36966;48.064;-0.792;2023-01-24T05:12:52;14.20;41.20
50955;DHT22;36966;48.064;-0.792;2023-01-24T05:15:12;14.20;41.20
50955;DHT22;36966;48.064;-0.792;2023-01-24T05:17:31;14.20;41.20
50955;DHT22;36966;48.064;-0.792;2023-01-24T05:19:50;14.20;41.20
50955;DHT22;36966;48.064;-0.792;2023-01-24T05:22:10;14.10;41.20
50955;DHT22;36966;48.064;-0.792;2023-01-24T05:24:29;14.10;41.20
50955;DHT22;36966;48.064;-0.792;2023-01-24T05:26:48;14.10;41.20
50955;DHT22;36966;48.064;-0.792;2023-01-24T05:29:07;14.10;41.20
50955;DHT22;36966;48.064;-0.792;2023-01-24T05:31:26;14.20;41.20
50955;DHT22;36966;48.064;-0.792;2023-01-24T05:33:46;14.10;41.20
50955;DHT22;36966;48.064;-0.792;2023-01-24T05:36:08;14.20;41.20
50955;DHT22;36966;48.064;-0.792;2023-01-24T05:38:28;14.20;41.20
50955;DHT22;36966;48.064;-0.792;2023-01-24T05:40:47;14.10;41.20
50955;DHT22;36966;48.064;-0.792;2023-01-24T05:43:06;14.10;41.20
50955;DHT22;36966;48.064;-0.792;2023-01-24T05:45:25;14.10;41.20
50955;DHT22;36966;48.064;-0.792;2023-01-24T05:47:45;14.10;41.20
50955;DHT22;36966;48.064;-0.792;2023-01-24T05:50:04;14.10;41.20
50955;DHT22;36966;48.064;-0.792;2023-01-24T05:52:23;14.10;41.20
50955;DHT22;36966;48.064;-0.792;2023-01-24T05:54:43;14.10;41.20
50955;DHT22;36966;48.064;-0.792;2023-01-24T05:57:02;14.10;41.20
50955;DHT22;36966;48.064;-0.792;2023-01-24T05:59:21;14.10;41.20
50955;DHT22;36966;48.064;-0.792;2023-01-24T06:01:40;14.10;41.20
50955;DHT22;36966;48.064;-0.792;2023-01-24T06:03:59;14.10;41.20
50955;DHT22;36966;48.064;-0.792;2023-01-24T06:06:23;14.10;41.20
50955;DHT22;36966;48.064;-0.792;2023-01-24T06:08:44;14.10;41.20
50955;DHT22;36966;48.064;-0.792;2023-01-24T06:11:11;14.10;41.20
50955;DHT22;36966;48.064;-0.792;2023-01-24T06:13:32;14.10;41.10
50955;DHT22;36966;48.064;-0.792;2023-01-24T06:15:51;14.10;41.20
50955;DHT22;36966;48.064;-0.792;2023-01-24T06:18:14;14.10;41.20
50955;DHT22;36966;48.064;-0.792;2023-01-24T06:20:34;14.10;41.10
50955;DHT22;36966;48.064;-0.792;2023-01-24T06:23:07;14.10;41.10
50955;DHT22;36966;48.064;-0.792;2023-01-24T06:25:26;14.10;41.10
50955;DHT22;36966;48.064;-0.792;2023-01-24T06:27:49;14.10;41.10
50955;DHT22;36966;48.064;-0.792;2023-01-24T06:30:11;14.10;41.10
50955;DHT22;36966;48.064;-0.792;2023-01-24T06:32:57;14.10;41.10
50955;DHT22;36966;48.064;-0.792;2023-01-24T06:37:46;14.10;41.10
50955;DHT22;36966;48.064;-0.792;2023-01-24T06:40:10;14.10;41.10
50955;DHT22;36966;48.064;-0.792;2023-01-24T06:42:30;14.00;41.10
50955;DHT22;36966;48.064;-0.792;2023-01-24T06:44:50;14.10;41.20
50955;DHT22;36966;48.064;-0.792;2023-01-24T06:47:12;14.10;41.20
50955;DHT22;36966;48.064;-0.792;2023-01-24T06:49:32;14.10;41.20
50955;DHT22;36966;48.064;-0.792;2023-01-24T06:51:51;14.10;41.20
50955;DHT22;36966;48.064;-0.792;2023-01-24T06:54:11;14.00;41.20
50955;DHT22;36966;48.064;-0.792;2023-01-24T06:56:30;14.10;41.20
50955;DHT22;36966;48.064;-0.792;2023-01-24T06:58:50;14.10;41.20
50955;DHT22;36966;48.064;-0.792;2023-01-24T07:01:09;14.10;41.20
50955;DHT22;36966;48.064;-0.792;2023-01-24T07:03:28;14.10;41.20
50955;DHT22;36966;48.064;-0.792;2023-01-24T07:05:47;14.10;41.20
50955;DHT22;36966;48.064;-0.792;2023-01-24T07:08:07;14.00;41.20
50955;DHT22;36966;48.064;-0.792;2023-01-24T07:10:26;14.10;41.20
50955;DHT22;36966;48.064;-0.792;2023-01-24T07:12:46;14.00;41.20
50955;DHT22;36966;48.064;-0.792;2023-01-24T07:15:06;14.10;41.20
50955;DHT22;36966;48.064;-0.792;2023-01-24T07:17:26;14.10;41.20
50955;DHT22;36966;48.064;-0.792;2023-01-24T07:19:45;14.00;41.20
50955;DHT22;36966;48.064;-0.792;2023-01-24T07:22:10;14.10;41.20
50955;DHT22;36966;48.064;-0.792;2023-01-24T07:24:30;14.10;41.30
50955;DHT22;36966;48.064;-0.792;2023-01-24T07:26:50;14.10;41.20
50955;DHT22;36966;48.064;-0.792;2023-01-24T07:29:10;14.10;41.20
50955;DHT22;36966;48.064;-0.792;2023-01-24T07:31:30;14.10;41.20
50955;DHT22;36966;48.064;-0.792;2023-01-24T07:33:49;14.10;41.20
50955;DHT22;36966;48.064;-0.792;2023-01-24T07:36:14;14.00;41.20
50955;DHT22;36966;48.064;-0.792;2023-01-24T07:38:34;14.00;41.20
50955;DHT22;36966;48.064;-0.792;2023-01-24T07:40:53;14.10;41.20
50955;DHT22;36966;48.064;-0.792;2023-01-24T07:43:12;14.10;41.20
50955;DHT22;36966;48.064;-0.792;2023-01-24T07:45:32;14.00;41.20
50955;DHT22;36966;48.064;-0.792;2023-01-24T07:47:57;14.00;41.20
50955;DHT22;36966;48.064;-0.792;2023-01-24T07:50:17;14.00;41.20
50955;DHT22;36966;48.064;-0.792;2023-01-24T07:52:36;14.00;41.20
50955;DHT22;36966;48.064;-0.792;2023-01-24T07:54:55;14.00;41.20
50955;DHT22;36966;48.064;-0.792;2023-01-24T07:57:14;14.00;41.20
50955;DHT22;36966;48.064;-0.792;2023-01-24T07:59:34;14.00;41.20
50955;DHT22;36966;48.064;-0.792;2023-01-24T08:01:53;14.10;41.20
50955;DHT22;36966;48.064;-0.792;2023-01-24T08:04:12;14.00;41.20
50955;DHT22;36966;48.064;-0.792;2023-01-24T08:06:32;14.00;41.20
50955;DHT22;36966;48.064;-0.792;2023-01-24T08:08:51;14.00;41.30
50955;DHT22;36966;48.064;-0.792;2023-01-24T08:11:10;14.00;41.30
50955;DHT22;36966;48.064;-0.792;2023-01-24T08:13:32;14.00;41.30
50955;DHT22;36966;48.064;-0.792;2023-01-24T08:15:52;14.00;41.30
50955;DHT22;36966;48.064;-0.792;2023-01-24T08:18:11;14.00;41.30
50955;DHT22;36966;48.064;-0.792;2023-01-24T08:20:30;14.00;41.30
50955;DHT22;36966;48.064;-0.792;2023-01-24T08:22:53;14.00;41.20
50955;DHT22;36966;48.064;-0.792;2023-01-24T08:25:14;14.00;41.20
50955;DHT22;36966;48.064;-0.792;2023-01-24T08:27:34;14.10;41.30
50955;DHT22;36966;48.064;-0.792;2023-01-24T08:29:53;14.10;41.30
50955;DHT22;36966;48.064;-0.792;2023-01-24T08:32:12;14.00;41.20
50955;DHT22;36966;48.064;-0.792;2023-01-24T08:34:31;14.00;41.30
50955;DHT22;36966;48.064;-0.792;2023-01-24T08:36:51;14.00;41.20
50955;DHT22;36966;48.064;-0.792;2023-01-24T08:39:11;14.00;41.20
50955;DHT22;36966;48.064;-0.792;2023-01-24T08:41:30;14.00;41.20
50955;DHT22;36966;48.064;-0.792;2023-01-24T08:43:51;14.00;41.30
50955;DHT22;36966;48.064;-0.792;2023-01-24T08:46:11;14.00;41.30
50955;DHT22;36966;48.064;-0.792;2023-01-24T08:48:30;14.00;41.30
50955;DHT22;36966;48.064;-0.792;2023-01-24T08:50:49;14.10;41.30
50955;DHT22;36966;48.064;-0.792;2023-01-24T08:53:08;14.00;41.30
50955;DHT22;36966;48.064;-0.792;2023-01-24T08:55:27;14.00;41.30
50955;DHT22;36966;48.064;-0.792;2023-01-24T08:57:47;14.00;41.30
50955;DHT22;36966;48.064;-0.792;2023-01-24T09:00:07;14.00;41.30
50955;DHT22;36966;48.064;-0.792;2023-01-24T09:02:26;14.10;41.30
50955;DHT22;36966;48.064;-0.792;2023-01-24T09:04:45;14.10;41.30
50955;DHT22;36966;48.064;-0.792;2023-01-24T09:07:05;14.00;41.30
50955;DHT22;36966;48.064;-0.792;2023-01-24T09:09:24;14.00;41.30
50955;DHT22;36966;48.064;-0.792;2023-01-24T09:11:44;14.00;41.30
50955;DHT22;36966;48.064;-0.792;2023-01-24T09:14:04;14.10;41.30
50955;DHT22;36966;48.064;-0.792;2023-01-24T09:16:24;14.10;41.20
50955;DHT22;36966;48.064;-0.792;2023-01-24T09:18:43;14.10;41.20
50955;DHT22;36966;48.064;-0.792;2023-01-24T09:21:03;14.10;41.30
50955;DHT22;36966;48.064;-0.792;2023-01-24T09:23:22;14.10;41.20
50955;DHT22;36966;48.064;-0.792;2023-01-24T09:25:49;14.10;41.20
50955;DHT22;36966;48.064;-0.792;2023-01-24T09:28:08;14.10;41.20
50955;DHT22;36966;48.064;-0.792;2023-01-24T09:30:27;14.10;41.20
50955;DHT22;36966;48.064;-0.792;2023-01-24T09:32:46;14.10;41.20
50955;DHT22;36966;48.064;-0.792;2023-01-24T09:35:06;14.10;41.20
50955;DHT22;36966;48.064;-0.792;2023-01-24T09:37:26;14.10;41.20
50955;DHT22;36966;48.064;-0.792;2023-01-24T09:39:46;14.10;41.20
50955;DHT22;36966;48.064;-0.792;2023-01-24T09:47:23;14.10;41.20
50955;DHT22;36966;48.064;-0.792;2023-01-24T09:52:17;14.10;41.20
50955;DHT22;36966;48.064;-0.792;2023-01-24T09:54:45;14.10;41.30
50955;DHT22;36966;48.064;-0.792;2023-01-24T09:57:13;14.10;41.20
50955;DHT22;36966;48.064;-0.792;2023-01-24T09:59:43;14.10;41.20
50955;DHT22;36966;48.064;-0.792;2023-01-24T10:02:15;14.10;41.20
50955;DHT22;36966;48.064;-0.792;2023-01-24T10:04:36;14.10;41.20
50955;DHT22;36966;48.064;-0.792;2023-01-24T10:09:59;14.00;41.10
50955;DHT22;36966;48.064;-0.792;2023-01-24T10:15:03;14.00;41.10
50955;DHT22;36966;48.064;-0.792;2023-01-24T10:25:50;14.10;41.10
50955;DHT22;36966;48.064;-0.792;2023-01-24T10:28:28;14.10;41.10
50955;DHT22;36966;48.064;-0.792;2023-01-24T10:30:51;14.10;41.00
50955;DHT22;36966;48.064;-0.792;2023-01-24T10:33:17;14.10;41.00
50955;DHT22;36966;48.064;-0.792;2023-01-24T10:35:43;14.10;41.00
50955;DHT22;36966;48.064;-0.792;2023-01-24T10:38:11;14.10;40.90
50955;DHT22;36966;48.064;-0.792;2023-01-24T10:40:33;14.00;40.90
50955;DHT22;36966;48.064;-0.792;2023-01-24T10:42:52;14.10;40.90
50955;DHT22;36966;48.064;-0.792;2023-01-24T10:50:43;14.10;40.90
50955;DHT22;36966;48.064;-0.792;2023-01-24T10:53:22;14.10;41.00
50955;DHT22;36966;48.064;-0.792;2023-01-24T10:55:43;14.10;41.00
50955;DHT22;36966;48.064;-0.792;2023-01-24T11:01:17;14.10;41.00
50955;DHT22;36966;48.064;-0.792;2023-01-24T11:03:39;14.20;40.90
50955;DHT22;36966;48.064;-0.792;2023-01-24T11:05:59;14.10;40.90
50955;DHT22;36966;48.064;-0.792;2023-01-24T11:08:23;14.10;40.90
50955;DHT22;36966;48.064;-0.792;2023-01-24T11:10:42;14.10;40.90
50955;DHT22;36966;48.064;-0.792;2023-01-24T11:15:48;14.10;40.90
50955;DHT22;36966;48.064;-0.792;2023-01-24T11:18:20;14.10;40.90
50955;DHT22;36966;48.064;-0.792;2023-01-24T11:20:41;14.10;40.90
50955;DHT22;36966;48.064;-0.792;2023-01-24T11:23:15;14.10;40.90
50955;DHT22;36966;48.064;-0.792;2023-01-24T11:25:35;14.10;40.80
50955;DHT22;36966;48.064;-0.792;2023-01-24T11:27:54;14.10;40.80
50955;DHT22;36966;48.064;-0.792;2023-01-24T11:35:21;14.10;40.70
50955;DHT22;36966;48.064;-0.792;2023-01-24T11:41:03;14.10;40.70
50955;DHT22;36966;48.064;-0.792;2023-01-24T11:51:53;14.10;40.80
50955;DHT22;36966;48.064;-0.792;2023-01-24T11:54:55;14.10;40.80
50955;DHT22;36966;48.064;-0.792;2023-01-24T12:00:15;14.10;40.90
50955;DHT22;36966;48.064;-0.792;2023-01-24T12:09:00;14.10;40.90
50955;DHT22;36966;48.064;-0.792;2023-01-24T12:11:28;14.10;41.00
50955;DHT22;36966;48.064;-0.792;2023-01-24T12:17:02;14.10;41.00
50955;DHT22;36966;48.064;-0.792;2023-01-24T12:19:24;14.10;41.00
50955;DHT22;36966;48.064;-0.792;2023-01-24T12:21:45;14.10;41.00
50955;DHT22;36966;48.064;-0.792;2023-01-24T12:26:58;14.10;41.10
50955;DHT22;36966;48.064;-0.792;2023-01-24T12:29:27;14.10;41.00
50955;DHT22;36966;48.064;-0.792;2023-01-24T12:32:02;14.10;41.00
50955;DHT22;36966;48.064;-0.792;2023-01-24T12:45:05;14.10;41.10
50955;DHT22;36966;48.064;-0.792;2023-01-24T12:48:10;14.10;41.10
50955;DHT22;36966;48.064;-0.792;2023-01-24T12:53:27;14.10;41.10
50955;DHT22;36966;48.064;-0.792;2023-01-24T12:58:31;14.20;41.20
50955;DHT22;36966;48.064;-0.792;2023-01-24T13:00:57;14.10;41.20
50955;DHT22;36966;48.064;-0.792;2023-01-24T13:03:27;14.10;41.20
50955;DHT22;36966;48.064;-0.792;2023-01-24T13:08:23;14.10;41.10
50955;DHT22;36966;48.064;-0.792;2023-01-24T13:13:16;14.10;41.10
50955;DHT22;36966;48.064;-0.792;2023-01-24T13:16:30;14.10;41.10
50955;DHT22;36966;48.064;-0.792;2023-01-24T13:18:57;14.10;41.10
50955;DHT22;36966;48.064;-0.792;2023-01-24T13:21:36;14.10;41.10
50955;DHT22;36966;48.064;-0.792;2023-01-24T13:32:24;14.10;41.20
50955;DHT22;36966;48.064;-0.792;2023-01-24T13:34:56;14.20;41.10
50955;DHT22;36966;48.064;-0.792;2023-01-24T13:37:34;14.20;41.20
50955;DHT22;36966;48.064;-0.792;2023-01-24T13:40:05;14.20;41.20
50955;DHT22;36966;48.064;-0.792;2023-01-24T13:42:33;14.20;41.20
50955;DHT22;36966;48.064;-0.792;2023-01-24T13:44:52;14.10;41.10
50955;DHT22;36966;48.064;-0.792;2023-01-24T13:54:51;14.20;41.20
50955;DHT22;36966;48.064;-0.792;2023-01-24T13:57:46;14.10;41.20
50955;DHT22;36966;48.064;-0.792;2023-01-24T14:00:13;14.20;41.30
50955;DHT22;36966;48.064;-0.792;2023-01-24T14:05:54;14.20;41.30
50955;DHT22;36966;48.064;-0.792;2023-01-24T14:12:59;14.20;41.30
50955;DHT22;36966;48.064;-0.792;2023-01-24T14:15:25;14.20;41.30
50955;DHT22;36966;48.064;-0.792;2023-01-24T14:17:47;14.10;41.30
50955;DHT22;36966;48.064;-0.792;2023-01-24T14:20:41;14.20;41.30
50955;DHT22;36966;48.064;-0.792;2023-01-24T14:23:04;14.10;41.30
50955;DHT22;36966;48.064;-0.792;2023-01-24T14:25:38;14.20;41.30
50955;DHT22;36966;48.064;-0.792;2023-01-24T14:28:36;14.20;41.40
50955;DHT22;36966;48.064;-0.792;2023-01-24T14:30:57;14.20;41.40
50955;DHT22;36966;48.064;-0.792;2023-01-24T14:33:42;14.10;41.40
50955;DHT22;36966;48.064;-0.792;2023-01-24T14:36:32;14.20;41.40
50955;DHT22;36966;48.064;-0.792;2023-01-24T14:39:21;14.20;41.40
50955;DHT22;36966;48.064;-0.792;2023-01-24T14:41:41;14.20;41.50
50955;DHT22;36966;48.064;-0.792;2023-01-24T14:44:01;14.10;41.50
50955;DHT22;36966;48.064;-0.792;2023-01-24T14:46:22;14.10;41.60
50955;DHT22;36966;48.064;-0.792;2023-01-24T14:48:42;14.10;41.60
50955;DHT22;36966;48.064;-0.792;2023-01-24T14:51:06;14.20;41.60
50955;DHT22;36966;48.064;-0.792;2023-01-24T14:53:28;14.10;41.60
50955;DHT22;36966;48.064;-0.792;2023-01-24T14:55:50;14.20;41.60
50955;DHT22;36966;48.064;-0.792;2023-01-24T14:58:20;14.10;41.60
50955;DHT22;36966;48.064;-0.792;2023-01-24T15:00:40;14.20;41.60
50955;DHT22;36966;48.064;-0.792;2023-01-24T15:03:01;14.10;41.60
50955;DHT22;36966;48.064;-0.792;2023-01-24T15:05:36;14.20;41.60
50955;DHT22;36966;48.064;-0.792;2023-01-24T15:07:57;14.10;41.60
50955;DHT22;36966;48.064;-0.792;2023-01-24T15:10:24;14.20;41.60
50955;DHT22;36966;48.064;-0.792;2023-01-24T15:12:44;14.20;41.60
50955;DHT22;36966;48.064;-0.792;2023-01-24T15:15:04;14.10;41.70
50955;DHT22;36966;48.064;-0.792;2023-01-24T15:17:26;14.10;41.70
50955;DHT22;36966;48.064;-0.792;2023-01-24T15:19:47;14.10;41.70
50955;DHT22;36966;48.064;-0.792;2023-01-24T15:22:18;14.10;41.70
50955;DHT22;36966;48.064;-0.792;2023-01-24T15:24:38;14.10;41.70
50955;DHT22;36966;48.064;-0.792;2023-01-24T15:26:59;14.10;41.80
50955;DHT22;36966;48.064;-0.792;2023-01-24T15:32:00;14.10;41.80
50955;DHT22;36966;48.064;-0.792;2023-01-24T15:34:19;14.10;41.80
50955;DHT22;36966;48.064;-0.792;2023-01-24T15:36:38;14.10;41.80
50955;DHT22;36966;48.064;-0.792;2023-01-24T15:38:59;14.10;41.80
50955;DHT22;36966;48.064;-0.792;2023-01-24T15:41:26;14.10;41.80
50955;DHT22;36966;48.064;-0.792;2023-01-24T15:44:06;14.10;41.80
50955;DHT22;36966;48.064;-0.792;2023-01-24T15:49:58;14.00;41.80
50955;DHT22;36966;48.064;-0.792;2023-01-24T15:54:18;14.10;41.80
50955;DHT22;36966;48.064;-0.792;2023-01-24T15:56:41;14.00;41.80
50955;DHT22;36966;48.064;-0.792;2023-01-24T15:59:01;14.10;41.70
50955;DHT22;36966;48.064;-0.792;2023-01-24T16:01:20;14.00;41.70
50955;DHT22;36966;48.064;-0.792;2023-01-24T16:03:40;14.10;41.70
50955;DHT22;36966;48.064;-0.792;2023-01-24T16:05:59;14.10;41.60
50955;DHT22;36966;48.064;-0.792;2023-01-24T16:08:18;14.10;41.60
50955;DHT22;36966;48.064;-0.792;2023-01-24T16:10:38;14.10;41.60
50955;DHT22;36966;48.064;-0.792;2023-01-24T16:12:58;14.10;41.60
50955;DHT22;36966;48.064;-0.792;2023-01-24T16:15:19;14.00;41.60
50955;DHT22;36966;48.064;-0.792;2023-01-24T16:17:39;14.10;41.60
50955;DHT22;36966;48.064;-0.792;2023-01-24T16:19:58;14.00;41.60
50955;DHT22;36966;48.064;-0.792;2023-01-24T16:22:17;14.00;41.60
50955;DHT22;36966;48.064;-0.792;2023-01-24T16:24:37;14.00;41.60
50955;DHT22;36966;48.064;-0.792;2023-01-24T16:26:57;14.00;41.60
50955;DHT22;36966;48.064;-0.792;2023-01-24T16:29:25;14.00;41.60
50955;DHT22;36966;48.064;-0.792;2023-01-24T16:31:46;14.10;41.60
50955;DHT22;36966;48.064;-0.792;2023-01-24T16:34:05;14.00;41.70
50955;DHT22;36966;48.064;-0.792;2023-01-24T16:36:25;14.10;41.70
50955;DHT22;36966;48.064;-0.792;2023-01-24T16:38:46;14.10;41.70
50955;DHT22;36966;48.064;-0.792;2023-01-24T16:41:05;14.00;41.70
50955;DHT22;36966;48.064;-0.792;2023-01-24T16:43:24;14.10;41.70
50955;DHT22;36966;48.064;-0.792;2023-01-24T16:45:48;14.10;41.70
50955;DHT22;36966;48.064;-0.792;2023-01-24T16:48:08;14.10;41.70
50955;DHT22;36966;48.064;-0.792;2023-01-24T16:50:27;14.10;41.70
50955;DHT22;36966;48.064;-0.792;2023-01-24T16:52:46;14.10;41.80
50955;DHT22;36966;48.064;-0.792;2023-01-24T16:55:07;14.20;41.80
50955;DHT22;36966;48.064;-0.792;2023-01-24T16:57:27;14.10;41.80